sensor_id;sensor_type;location;lat;lon;timestamp;P1;durP1;ratioP1;P2;durP2;ratioP2
46042;SDS011;32533;-33.854;18.542;2022-08-16T00:01:36;3.60;;;2.30;;
46042;SDS011;32533;-33.854;18.542;2022-08-16T00:04:02;7.30;;;2.63;;
46042;SDS011;32533;-33.854;18.542;2022-08-16T00:06:29;4.35;;;2.17;;
46042;SDS011;32533;-33.854;18.542;2022-08-16T00:08:55;5.38;;;1.83;;
46042;SDS011;32533;-33.854;18.542;2022-08-16T00:11:22;6.93;;;2.10;;
46042;SDS011;32533;-33.854;18.542;2022-08-16T00:13:49;8.75;;;2.60;;
46042;SDS011;32533;-33.854;18.542;2022-08-16T00:16:16;4.70;;;2.35;;
46042;SDS011;32533;-33.854;18.542;2022-08-16T00:18:42;4.88;;;1.95;;
46042;SDS011;32533;-33.854;18.542;2022-08-16T00:21:10;8.18;;;3.17;;
46042;SDS011;32533;-33.854;18.542;2022-08-16T00:23:36;3.45;;;1.75;;
46042;SDS011;32533;-33.854;18.542;2022-08-16T00:26:03;4.40;;;2.03;;
46042;SDS011;32533;-33.854;18.542;2022-08-16T00:28:29;4.45;;;1.65;;
46042;SDS011;32533;-33.854;18.542;2022-08-16T00:30:56;5.18;;;1.92;;
46042;SDS011;32533;-33.854;18.542;2022-08-16T00:33:22;4.57;;;2.25;;
46042;SDS011;32533;-33.854;18.542;2022-08-16T00:35:49;3.80;;;1.63;;
46042;SDS011;32533;-33.854;18.542;2022-08-16T00:38:15;2.80;;;1.42;;
46042;SDS011;32533;-33.854;18.542;2022-08-16T00:40:43;3.70;;;1.67;;
46042;SDS011;32533;-33.854;18.542;2022-08-16T00:43:19;5.05;;;1.35;;
46042;SDS011;32533;-33.854;18.542;2022-08-16T00:46:12;4.85;;;1.60;;
46042;SDS011;32533;-33.854;18.542;2022-08-16T00:48:47;5.38;;;2.05;;
46042;SDS011;32533;-33.854;18.542;2022-08-16T00:51:16;3.38;;;1.42;;
46042;SDS011;32533;-33.854;18.542;2022-08-16T00:53:45;4.38;;;1.20;;
46042;SDS011;32533;-33.854;18.542;2022-08-16T00:56:13;8.10;;;1.92;;
46042;SDS011;32533;-33.854;18.542;2022-08-16T00:58:44;11.82;;;1.48;;
46042;SDS011;32533;-33.854;18.542;2022-08-16T01:01:13;2.78;;;1.63;;
46042;SDS011;32533;-33.854;18.542;2022-08-16T01:03:41;4.68;;;2.30;;
46042;SDS011;32533;-33.854;18.542;2022-08-16T01:06:11;6.82;;;1.83;;
46042;SDS011;32533;-33.854;18.542;2022-08-16T01:08:39;3.72;;;1.35;;
46042;SDS011;32533;-33.854;18.542;2022-08-16T01:11:07;1.55;;;1.15;;
46042;SDS011;32533;-33.854;18.542;2022-08-16T01:13:35;1.75;;;1.65;;
46042;SDS011;32533;-33.854;18.542;2022-08-16T01:16:05;8.73;;;1.88;;
46042;SDS011;32533;-33.854;18.542;2022-08-16T01:18:45;2.85;;;1.38;;
46042;SDS011;32533;-33.854;18.542;2022-08-16T01:21:37;4.13;;;2.30;;
46042;SDS011;32533;-33.854;18.542;2022-08-16T01:26:53;7.15;;;3.05;;
46042;SDS011;32533;-33.854;18.542;2022-08-16T01:29:33;1.88;;;1.70;;
46042;SDS011;32533;-33.854;18.542;2022-08-16T01:32:09;2.90;;;1.40;;
46042;SDS011;32533;-33.854;18.542;2022-08-16T01:34:36;5.40;;;1.58;;
46042;SDS011;32533;-33.854;18.542;2022-08-16T01:37:05;3.20;;;1.50;;
46042;SDS011;32533;-33.854;18.542;2022-08-16T01:39:34;3.30;;;1.80;;
46042;SDS011;32533;-33.854;18.542;2022-08-16T01:42:01;3.78;;;1.42;;
46042;SDS011;32533;-33.854;18.542;2022-08-16T01:44:29;5.85;;;1.67;;
46042;SDS011;32533;-33.854;18.542;2022-08-16T01:46:55;8.43;;;2.05;;
46042;SDS011;32533;-33.854;18.542;2022-08-16T01:49:24;6.13;;;1.58;;
46042;SDS011;32533;-33.854;18.542;2022-08-16T01:51:58;10.65;;;3.40;;
46042;SDS011;32533;-33.854;18.542;2022-08-16T01:54:28;9.00;;;2.00;;
46042;SDS011;32533;-33.854;18.542;2022-08-16T01:56:54;5.97;;;1.65;;
46042;SDS011;32533;-33.854;18.542;2022-08-16T01:59:21;4.20;;;1.52;;
46042;SDS011;32533;-33.854;18.542;2022-08-16T02:01:49;8.45;;;1.80;;
46042;SDS011;32533;-33.854;18.542;2022-08-16T02:04:17;4.47;;;1.67;;
46042;SDS011;32533;-33.854;18.542;2022-08-16T02:06:46;4.53;;;2.08;;
46042;SDS011;32533;-33.854;18.542;2022-08-16T02:09:13;7.57;;;2.03;;
46042;SDS011;32533;-33.854;18.542;2022-08-16T02:11:43;5.13;;;1.85;;
46042;SDS011;32533;-33.854;18.542;2022-08-16T02:14:11;10.40;;;3.08;;
46042;SDS011;32533;-33.854;18.542;2022-08-16T02:16:37;5.13;;;1.65;;
46042;SDS011;32533;-33.854;18.542;2022-08-16T02:19:05;11.85;;;2.38;;
46042;SDS011;32533;-33.854;18.542;2022-08-16T02:21:31;10.40;;;2.22;;
46042;SDS011;32533;-33.854;18.542;2022-08-16T02:23:58;5.00;;;2.88;;
46042;SDS011;32533;-33.854;18.542;2022-08-16T02:26:24;4.97;;;2.13;;
46042;SDS011;32533;-33.854;18.542;2022-08-16T02:28:51;9.18;;;2.45;;
46042;SDS011;32533;-33.854;18.542;2022-08-16T02:31:18;35.90;;;4.55;;
46042;SDS011;32533;-33.854;18.542;2022-08-16T02:33:44;6.00;;;2.70;;
46042;SDS011;32533;-33.854;18.542;2022-08-16T02:36:11;6.00;;;1.77;;
46042;SDS011;32533;-33.854;18.542;2022-08-16T02:38:38;7.55;;;2.13;;
46042;SDS011;32533;-33.854;18.542;2022-08-16T02:41:05;6.43;;;2.50;;
46042;SDS011;32533;-33.854;18.542;2022-08-16T02:43:34;7.80;;;3.13;;
46042;SDS011;32533;-33.854;18.542;2022-08-16T02:46:01;11.25;;;2.58;;
46042;SDS011;32533;-33.854;18.542;2022-08-16T02:48:29;3.05;;;2.33;;
46042;SDS011;32533;-33.854;18.542;2022-08-16T02:51:00;12.82;;;2.92;;
46042;SDS011;32533;-33.854;18.542;2022-08-16T02:53:28;10.98;;;2.42;;
46042;SDS011;32533;-33.854;18.542;2022-08-16T02:55:55;9.63;;;2.33;;
46042;SDS011;32533;-33.854;18.542;2022-08-16T02:58:23;3.28;;;1.73;;
46042;SDS011;32533;-33.854;18.542;2022-08-16T03:00:50;5.72;;;2.33;;
46042;SDS011;32533;-33.854;18.542;2022-08-16T03:03:17;8.68;;;2.25;;
46042;SDS011;32533;-33.854;18.542;2022-08-16T03:05:44;9.43;;;2.10;;
46042;SDS011;32533;-33.854;18.542;2022-08-16T03:08:11;5.07;;;1.48;;
46042;SDS011;32533;-33.854;18.542;2022-08-16T03:10:38;6.72;;;1.88;;
46042;SDS011;32533;-33.854;18.542;2022-08-16T03:13:05;4.32;;;1.48;;
46042;SDS011;32533;-33.854;18.542;2022-08-16T03:15:32;3.45;;;1.70;;
46042;SDS011;32533;-33.854;18.542;2022-08-16T03:17:58;8.15;;;1.85;;
46042;SDS011;32533;-33.854;18.542;2022-08-16T03:20:26;10.65;;;1.95;;
46042;SDS011;32533;-33.854;18.542;2022-08-16T03:22:52;7.35;;;2.63;;
46042;SDS011;32533;-33.854;18.542;2022-08-16T03:25:19;3.38;;;1.67;;
46042;SDS011;32533;-33.854;18.542;2022-08-16T03:27:45;8.20;;;2.78;;
46042;SDS011;32533;-33.854;18.542;2022-08-16T03:30:14;7.47;;;1.90;;
46042;SDS011;32533;-33.854;18.542;2022-08-16T03:32:47;3.42;;;1.63;;
46042;SDS011;32533;-33.854;18.542;2022-08-16T03:35:15;3.83;;;1.77;;
46042;SDS011;32533;-33.854;18.542;2022-08-16T03:37:43;6.57;;;2.65;;
46042;SDS011;32533;-33.854;18.542;2022-08-16T03:40:14;8.07;;;3.05;;
46042;SDS011;32533;-33.854;18.542;2022-08-16T03:42:41;9.32;;;2.55;;
46042;SDS011;32533;-33.854;18.542;2022-08-16T03:45:07;19.73;;;2.90;;
46042;SDS011;32533;-33.854;18.542;2022-08-16T03:47:34;15.63;;;3.13;;
46042;SDS011;32533;-33.854;18.542;2022-08-16T03:50:01;8.23;;;2.42;;
46042;SDS011;32533;-33.854;18.542;2022-08-16T03:52:28;6.05;;;2.25;;
46042;SDS011;32533;-33.854;18.542;2022-08-16T03:54:55;20.70;;;3.03;;
46042;SDS011;32533;-33.854;18.542;2022-08-16T03:58:01;10.80;;;2.28;;
46042;SDS011;32533;-33.854;18.542;2022-08-16T04:01:07;16.73;;;3.75;;
46042;SDS011;32533;-33.854;18.542;2022-08-16T04:03:34;9.18;;;2.22;;
46042;SDS011;32533;-33.854;18.542;2022-08-16T04:06:01;18.15;;;3.22;;
46042;SDS011;32533;-33.854;18.542;2022-08-16T04:09:07;22.83;;;3.40;;
46042;SDS011;32533;-33.854;18.542;2022-08-16T04:12:13;26.10;;;12.68;;
46042;SDS011;32533;-33.854;18.542;2022-08-16T04:15:19;26.70;;;13.45;;
46042;SDS011;32533;-33.854;18.542;2022-08-16T04:18:25;11.52;;;6.18;;
46042;SDS011;32533;-33.854;18.542;2022-08-16T04:21:32;15.40;;;6.05;;
46042;SDS011;32533;-33.854;18.542;2022-08-16T04:24:38;6.65;;;2.55;;
46042;SDS011;32533;-33.854;18.542;2022-08-16T04:27:44;6.80;;;2.72;;
46042;SDS011;32533;-33.854;18.542;2022-08-16T04:33:36;9.33;;;3.23;;
46042;SDS011;32533;-33.854;18.542;2022-08-16T04:36:42;8.38;;;5.35;;
46042;SDS011;32533;-33.854;18.542;2022-08-16T04:39:48;37.92;;;21.13;;
46042;SDS011;32533;-33.854;18.542;2022-08-16T04:42:15;20.20;;;12.98;;
46042;SDS011;32533;-33.854;18.542;2022-08-16T04:44:43;33.65;;;11.05;;
46042;SDS011;32533;-33.854;18.542;2022-08-16T04:47:11;9.30;;;5.65;;
46042;SDS011;32533;-33.854;18.542;2022-08-16T04:49:38;10.95;;;4.45;;
46042;SDS011;32533;-33.854;18.542;2022-08-16T04:52:04;4.88;;;3.33;;
46042;SDS011;32533;-33.854;18.542;2022-08-16T04:55:18;15.98;;;3.95;;
46042;SDS011;32533;-33.854;18.542;2022-08-16T04:57:48;7.05;;;3.05;;
46042;SDS011;32533;-33.854;18.542;2022-08-16T05:00:17;5.63;;;3.42;;
46042;SDS011;32533;-33.854;18.542;2022-08-16T05:02:55;7.85;;;2.97;;
46042;SDS011;32533;-33.854;18.542;2022-08-16T05:05:23;13.85;;;4.75;;
46042;SDS011;32533;-33.854;18.542;2022-08-16T05:07:49;18.70;;;4.97;;
46042;SDS011;32533;-33.854;18.542;2022-08-16T05:10:16;11.65;;;3.28;;
46042;SDS011;32533;-33.854;18.542;2022-08-16T05:12:46;7.82;;;3.28;;
46042;SDS011;32533;-33.854;18.542;2022-08-16T05:15:12;11.80;;;3.40;;
46042;SDS011;32533;-33.854;18.542;2022-08-16T05:18:18;9.93;;;3.25;;
46042;SDS011;32533;-33.854;18.542;2022-08-16T05:21:25;15.63;;;4.20;;
46042;SDS011;32533;-33.854;18.542;2022-08-16T05:24:31;10.73;;;4.53;;
46042;SDS011;32533;-33.854;18.542;2022-08-16T05:26:57;12.40;;;3.63;;
46042;SDS011;32533;-33.854;18.542;2022-08-16T05:29:24;9.45;;;4.97;;
46042;SDS011;32533;-33.854;18.542;2022-08-16T05:31:50;14.32;;;3.92;;
46042;SDS011;32533;-33.854;18.542;2022-08-16T05:34:17;7.68;;;4.20;;
46042;SDS011;32533;-33.854;18.542;2022-08-16T05:36:46;17.38;;;4.15;;
46042;SDS011;32533;-33.854;18.542;2022-08-16T05:39:17;11.20;;;3.65;;
46042;SDS011;32533;-33.854;18.542;2022-08-16T05:41:44;7.57;;;4.25;;
46042;SDS011;32533;-33.854;18.542;2022-08-16T05:44:10;19.70;;;5.32;;
46042;SDS011;32533;-33.854;18.542;2022-08-16T05:46:38;11.52;;;4.53;;
46042;SDS011;32533;-33.854;18.542;2022-08-16T05:49:07;11.68;;;5.43;;
46042;SDS011;32533;-33.854;18.542;2022-08-16T05:51:33;18.00;;;5.93;;
46042;SDS011;32533;-33.854;18.542;2022-08-16T05:54:00;15.65;;;4.78;;
46042;SDS011;32533;-33.854;18.542;2022-08-16T05:56:26;10.63;;;5.60;;
46042;SDS011;32533;-33.854;18.542;2022-08-16T05:58:52;13.85;;;5.72;;
46042;SDS011;32533;-33.854;18.542;2022-08-16T06:01:19;12.30;;;4.38;;
46042;SDS011;32533;-33.854;18.542;2022-08-16T06:03:45;16.88;;;6.07;;
46042;SDS011;32533;-33.854;18.542;2022-08-16T06:06:12;6.88;;;3.95;;
46042;SDS011;32533;-33.854;18.542;2022-08-16T06:08:38;8.82;;;3.70;;
46042;SDS011;32533;-33.854;18.542;2022-08-16T06:11:06;11.55;;;5.72;;
46042;SDS011;32533;-33.854;18.542;2022-08-16T06:13:33;8.80;;;4.15;;
46042;SDS011;32533;-33.854;18.542;2022-08-16T06:16:03;13.55;;;3.95;;
46042;SDS011;32533;-33.854;18.542;2022-08-16T06:18:30;8.82;;;4.07;;
46042;SDS011;32533;-33.854;18.542;2022-08-16T06:20:57;11.13;;;3.63;;
46042;SDS011;32533;-33.854;18.542;2022-08-16T06:23:24;6.32;;;3.60;;
46042;SDS011;32533;-33.854;18.542;2022-08-16T06:25:51;19.38;;;5.00;;
46042;SDS011;32533;-33.854;18.542;2022-08-16T06:28:18;24.35;;;6.15;;
46042;SDS011;32533;-33.854;18.542;2022-08-16T06:30:45;18.83;;;6.55;;
46042;SDS011;32533;-33.854;18.542;2022-08-16T06:33:13;13.63;;;4.15;;
46042;SDS011;32533;-33.854;18.542;2022-08-16T06:35:40;10.65;;;3.45;;
46042;SDS011;32533;-33.854;18.542;2022-08-16T06:38:07;15.15;;;4.05;;
46042;SDS011;32533;-33.854;18.542;2022-08-16T06:40:34;15.43;;;4.45;;
46042;SDS011;32533;-33.854;18.542;2022-08-16T06:43:01;14.77;;;5.63;;
46042;SDS011;32533;-33.854;18.542;2022-08-16T06:45:27;17.88;;;4.22;;
46042;SDS011;32533;-33.854;18.542;2022-08-16T06:47:54;13.02;;;5.10;;
46042;SDS011;32533;-33.854;18.542;2022-08-16T06:50:21;9.40;;;3.65;;
46042;SDS011;32533;-33.854;18.542;2022-08-16T06:52:48;14.95;;;4.05;;
46042;SDS011;32533;-33.854;18.542;2022-08-16T06:55:15;16.63;;;3.83;;
46042;SDS011;32533;-33.854;18.542;2022-08-16T06:57:42;13.82;;;4.00;;
46042;SDS011;32533;-33.854;18.542;2022-08-16T07:00:10;11.57;;;3.58;;
46042;SDS011;32533;-33.854;18.542;2022-08-16T07:02:41;16.27;;;4.32;;
46042;SDS011;32533;-33.854;18.542;2022-08-16T07:05:12;13.52;;;4.20;;
46042;SDS011;32533;-33.854;18.542;2022-08-16T07:07:40;9.65;;;3.72;;
46042;SDS011;32533;-33.854;18.542;2022-08-16T07:10:10;11.95;;;3.88;;
46042;SDS011;32533;-33.854;18.542;2022-08-16T07:12:37;15.52;;;3.80;;
46042;SDS011;32533;-33.854;18.542;2022-08-16T07:15:05;12.85;;;4.20;;
46042;SDS011;32533;-33.854;18.542;2022-08-16T07:17:32;9.15;;;4.65;;
46042;SDS011;32533;-33.854;18.542;2022-08-16T07:19:58;9.18;;;3.42;;
46042;SDS011;32533;-33.854;18.542;2022-08-16T07:22:25;9.20;;;3.65;;
46042;SDS011;32533;-33.854;18.542;2022-08-16T07:24:51;7.22;;;2.97;;
46042;SDS011;32533;-33.854;18.542;2022-08-16T07:27:18;13.82;;;3.67;;
46042;SDS011;32533;-33.854;18.542;2022-08-16T07:29:44;10.15;;;3.20;;
46042;SDS011;32533;-33.854;18.542;2022-08-16T07:32:11;7.65;;;3.10;;
46042;SDS011;32533;-33.854;18.542;2022-08-16T07:34:37;7.68;;;2.85;;
46042;SDS011;32533;-33.854;18.542;2022-08-16T07:37:05;9.95;;;3.75;;
46042;SDS011;32533;-33.854;18.542;2022-08-16T07:39:33;6.68;;;3.17;;
46042;SDS011;32533;-33.854;18.542;2022-08-16T07:42:01;9.60;;;3.13;;
46042;SDS011;32533;-33.854;18.542;2022-08-16T07:44:27;6.43;;;2.28;;
46042;SDS011;32533;-33.854;18.542;2022-08-16T07:46:54;7.53;;;3.65;;
46042;SDS011;32533;-33.854;18.542;2022-08-16T07:49:21;11.27;;;3.60;;
46042;SDS011;32533;-33.854;18.542;2022-08-16T07:51:48;4.55;;;2.95;;
46042;SDS011;32533;-33.854;18.542;2022-08-16T07:54:15;9.68;;;3.20;;
46042;SDS011;32533;-33.854;18.542;2022-08-16T07:56:42;10.52;;;3.53;;
46042;SDS011;32533;-33.854;18.542;2022-08-16T07:59:09;9.50;;;3.13;;
46042;SDS011;32533;-33.854;18.542;2022-08-16T08:01:35;8.45;;;3.42;;
46042;SDS011;32533;-33.854;18.542;2022-08-16T08:04:03;8.45;;;4.35;;
46042;SDS011;32533;-33.854;18.542;2022-08-16T08:06:30;8.57;;;4.30;;
46042;SDS011;32533;-33.854;18.542;2022-08-16T08:08:57;6.88;;;4.22;;
46042;SDS011;32533;-33.854;18.542;2022-08-16T08:11:24;11.15;;;3.90;;
46042;SDS011;32533;-33.854;18.542;2022-08-16T08:13:53;7.10;;;3.72;;
46042;SDS011;32533;-33.854;18.542;2022-08-16T08:16:22;11.18;;;4.07;;
46042;SDS011;32533;-33.854;18.542;2022-08-16T08:18:49;5.97;;;3.15;;
46042;SDS011;32533;-33.854;18.542;2022-08-16T08:21:15;7.32;;;3.05;;
46042;SDS011;32533;-33.854;18.542;2022-08-16T08:23:44;4.22;;;2.42;;
46042;SDS011;32533;-33.854;18.542;2022-08-16T08:26:11;6.75;;;2.85;;
46042;SDS011;32533;-33.854;18.542;2022-08-16T08:28:38;5.07;;;2.50;;
46042;SDS011;32533;-33.854;18.542;2022-08-16T08:31:05;8.98;;;2.90;;
46042;SDS011;32533;-33.854;18.542;2022-08-16T08:33:32;10.32;;;3.17;;
46042;SDS011;32533;-33.854;18.542;2022-08-16T08:35:59;9.77;;;3.08;;
46042;SDS011;32533;-33.854;18.542;2022-08-16T08:38:28;5.20;;;3.53;;
46042;SDS011;32533;-33.854;18.542;2022-08-16T08:40:55;14.57;;;2.80;;
46042;SDS011;32533;-33.854;18.542;2022-08-16T08:43:21;7.22;;;2.20;;
46042;SDS011;32533;-33.854;18.542;2022-08-16T08:45:48;5.85;;;2.45;;
46042;SDS011;32533;-33.854;18.542;2022-08-16T08:48:17;6.57;;;2.60;;
46042;SDS011;32533;-33.854;18.542;2022-08-16T08:50:43;15.00;;;2.92;;
46042;SDS011;32533;-33.854;18.542;2022-08-16T08:53:10;6.93;;;2.22;;
46042;SDS011;32533;-33.854;18.542;2022-08-16T08:55:36;10.25;;;1.92;;
46042;SDS011;32533;-33.854;18.542;2022-08-16T08:58:03;4.53;;;1.27;;
46042;SDS011;32533;-33.854;18.542;2022-08-16T09:00:29;6.78;;;0.98;;
46042;SDS011;32533;-33.854;18.542;2022-08-16T09:02:56;2.42;;;0.98;;
46042;SDS011;32533;-33.854;18.542;2022-08-16T09:05:23;5.57;;;1.35;;
46042;SDS011;32533;-33.854;18.542;2022-08-16T09:07:52;6.53;;;1.58;;
46042;SDS011;32533;-33.854;18.542;2022-08-16T09:10:20;13.57;;;1.67;;
46042;SDS011;32533;-33.854;18.542;2022-08-16T09:12:47;15.98;;;2.85;;
46042;SDS011;32533;-33.854;18.542;2022-08-16T09:15:14;7.32;;;1.02;;
46042;SDS011;32533;-33.854;18.542;2022-08-16T09:17:41;6.47;;;1.27;;
46042;SDS011;32533;-33.854;18.542;2022-08-16T09:20:09;5.88;;;2.15;;
46042;SDS011;32533;-33.854;18.542;2022-08-16T09:22:38;5.30;;;0.85;;
46042;SDS011;32533;-33.854;18.542;2022-08-16T09:25:07;14.35;;;1.10;;
46042;SDS011;32533;-33.854;18.542;2022-08-16T09:27:34;9.25;;;1.98;;
46042;SDS011;32533;-33.854;18.542;2022-08-16T09:30:01;2.40;;;0.90;;
46042;SDS011;32533;-33.854;18.542;2022-08-16T09:32:28;2.92;;;0.90;;
46042;SDS011;32533;-33.854;18.542;2022-08-16T09:34:55;12.07;;;1.50;;
46042;SDS011;32533;-33.854;18.542;2022-08-16T09:37:23;6.00;;;1.30;;
46042;SDS011;32533;-33.854;18.542;2022-08-16T09:39:50;10.38;;;1.33;;
46042;SDS011;32533;-33.854;18.542;2022-08-16T09:42:17;3.65;;;1.98;;
46042;SDS011;32533;-33.854;18.542;2022-08-16T09:44:43;4.10;;;0.98;;
46042;SDS011;32533;-33.854;18.542;2022-08-16T09:47:10;4.50;;;1.13;;
46042;SDS011;32533;-33.854;18.542;2022-08-16T09:49:37;5.00;;;1.45;;
46042;SDS011;32533;-33.854;18.542;2022-08-16T09:52:04;5.28;;;0.82;;
46042;SDS011;32533;-33.854;18.542;2022-08-16T09:54:31;4.00;;;1.40;;
46042;SDS011;32533;-33.854;18.542;2022-08-16T09:56:57;4.28;;;1.00;;
46042;SDS011;32533;-33.854;18.542;2022-08-16T09:59:24;2.67;;;1.00;;
46042;SDS011;32533;-33.854;18.542;2022-08-16T10:01:51;1.98;;;1.10;;
46042;SDS011;32533;-33.854;18.542;2022-08-16T10:04:19;3.92;;;0.93;;
46042;SDS011;32533;-33.854;18.542;2022-08-16T10:06:46;7.60;;;1.25;;
46042;SDS011;32533;-33.854;18.542;2022-08-16T10:09:13;6.22;;;1.15;;
46042;SDS011;32533;-33.854;18.542;2022-08-16T10:11:41;14.43;;;1.55;;
46042;SDS011;32533;-33.854;18.542;2022-08-16T10:14:26;4.97;;;1.50;;
46042;SDS011;32533;-33.854;18.542;2022-08-16T10:16:58;3.47;;;1.00;;
46042;SDS011;32533;-33.854;18.542;2022-08-16T10:19:26;3.53;;;0.93;;
46042;SDS011;32533;-33.854;18.542;2022-08-16T10:21:53;2.97;;;0.98;;
46042;SDS011;32533;-33.854;18.542;2022-08-16T10:24:21;16.45;;;1.70;;
46042;SDS011;32533;-33.854;18.542;2022-08-16T10:26:48;6.57;;;1.30;;
46042;SDS011;32533;-33.854;18.542;2022-08-16T10:29:17;3.75;;;1.65;;
46042;SDS011;32533;-33.854;18.542;2022-08-16T10:31:44;7.85;;;1.27;;
46042;SDS011;32533;-33.854;18.542;2022-08-16T10:34:11;2.55;;;1.15;;
46042;SDS011;32533;-33.854;18.542;2022-08-16T10:36:38;3.50;;;1.15;;
46042;SDS011;32533;-33.854;18.542;2022-08-16T10:39:04;3.60;;;0.90;;
46042;SDS011;32533;-33.854;18.542;2022-08-16T10:41:31;3.70;;;1.23;;
46042;SDS011;32533;-33.854;18.542;2022-08-16T10:43:58;5.30;;;2.40;;
46042;SDS011;32533;-33.854;18.542;2022-08-16T10:46:25;13.63;;;1.88;;
46042;SDS011;32533;-33.854;18.542;2022-08-16T10:48:52;5.55;;;1.45;;
46042;SDS011;32533;-33.854;18.542;2022-08-16T10:51:19;4.30;;;1.20;;
46042;SDS011;32533;-33.854;18.542;2022-08-16T10:53:45;5.05;;;0.98;;
46042;SDS011;32533;-33.854;18.542;2022-08-16T10:56:12;10.27;;;1.50;;
46042;SDS011;32533;-33.854;18.542;2022-08-16T10:58:39;2.00;;;1.00;;
46042;SDS011;32533;-33.854;18.542;2022-08-16T11:01:06;5.45;;;0.95;;
46042;SDS011;32533;-33.854;18.542;2022-08-16T11:03:34;4.35;;;1.00;;
46042;SDS011;32533;-33.854;18.542;2022-08-16T11:06:02;2.67;;;0.68;;
46042;SDS011;32533;-33.854;18.542;2022-08-16T11:08:30;5.93;;;1.10;;
46042;SDS011;32533;-33.854;18.542;2022-08-16T11:10:57;5.28;;;0.95;;
46042;SDS011;32533;-33.854;18.542;2022-08-16T11:13:24;2.88;;;1.13;;
46042;SDS011;32533;-33.854;18.542;2022-08-16T11:15:53;6.25;;;0.82;;
46042;SDS011;32533;-33.854;18.542;2022-08-16T11:18:25;1.77;;;0.70;;
46042;SDS011;32533;-33.854;18.542;2022-08-16T11:20:54;3.20;;;1.38;;
46042;SDS011;32533;-33.854;18.542;2022-08-16T11:23:21;1.15;;;0.85;;
46042;SDS011;32533;-33.854;18.542;2022-08-16T11:25:48;5.05;;;1.23;;
46042;SDS011;32533;-33.854;18.542;2022-08-16T11:28:15;3.33;;;0.73;;
46042;SDS011;32533;-33.854;18.542;2022-08-16T11:30:42;2.63;;;0.98;;
46042;SDS011;32533;-33.854;18.542;2022-08-16T11:33:08;2.67;;;1.05;;
46042;SDS011;32533;-33.854;18.542;2022-08-16T11:35:35;1.80;;;0.88;;
46042;SDS011;32533;-33.854;18.542;2022-08-16T11:38:07;1.60;;;0.93;;
46042;SDS011;32533;-33.854;18.542;2022-08-16T11:40:49;2.80;;;0.80;;
46042;SDS011;32533;-33.854;18.542;2022-08-16T11:43:27;8.48;;;1.15;;
46042;SDS011;32533;-33.854;18.542;2022-08-16T11:45:57;11.77;;;1.33;;
46042;SDS011;32533;-33.854;18.542;2022-08-16T11:48:26;5.10;;;1.15;;
46042;SDS011;32533;-33.854;18.542;2022-08-16T11:50:54;2.42;;;0.85;;
46042;SDS011;32533;-33.854;18.542;2022-08-16T11:53:22;6.63;;;1.30;;
46042;SDS011;32533;-33.854;18.542;2022-08-16T11:55:49;3.47;;;1.15;;
46042;SDS011;32533;-33.854;18.542;2022-08-16T11:58:18;5.03;;;1.83;;
46042;SDS011;32533;-33.854;18.542;2022-08-16T12:00:45;4.53;;;1.27;;
46042;SDS011;32533;-33.854;18.542;2022-08-16T12:03:13;5.45;;;1.48;;
46042;SDS011;32533;-33.854;18.542;2022-08-16T12:05:41;3.55;;;1.23;;
46042;SDS011;32533;-33.854;18.542;2022-08-16T12:08:09;12.90;;;5.22;;
46042;SDS011;32533;-33.854;18.542;2022-08-16T12:10:37;4.57;;;1.27;;
46042;SDS011;32533;-33.854;18.542;2022-08-16T12:13:06;3.28;;;0.77;;
46042;SDS011;32533;-33.854;18.542;2022-08-16T12:15:33;6.13;;;1.17;;
46042;SDS011;32533;-33.854;18.542;2022-08-16T12:18:01;10.30;;;1.27;;
46042;SDS011;32533;-33.854;18.542;2022-08-16T12:20:29;4.65;;;0.98;;
46042;SDS011;32533;-33.854;18.542;2022-08-16T12:22:58;10.90;;;1.17;;
46042;SDS011;32533;-33.854;18.542;2022-08-16T12:25:26;6.78;;;1.45;;
46042;SDS011;32533;-33.854;18.542;2022-08-16T12:27:54;4.05;;;0.95;;
46042;SDS011;32533;-33.854;18.542;2022-08-16T12:30:23;3.40;;;1.05;;
46042;SDS011;32533;-33.854;18.542;2022-08-16T12:32:58;1.88;;;0.75;;
46042;SDS011;32533;-33.854;18.542;2022-08-16T12:35:26;9.20;;;2.13;;
46042;SDS011;32533;-33.854;18.542;2022-08-16T12:37:55;2.45;;;0.60;;
46042;SDS011;32533;-33.854;18.542;2022-08-16T12:40:24;6.80;;;0.98;;
46042;SDS011;32533;-33.854;18.542;2022-08-16T12:42:53;2.53;;;0.93;;
46042;SDS011;32533;-33.854;18.542;2022-08-16T12:45:22;2.17;;;0.60;;
46042;SDS011;32533;-33.854;18.542;2022-08-16T12:47:49;4.45;;;1.60;;
46042;SDS011;32533;-33.854;18.542;2022-08-16T12:50:35;6.85;;;0.93;;
46042;SDS011;32533;-33.854;18.542;2022-08-16T12:53:03;2.83;;;0.70;;
46042;SDS011;32533;-33.854;18.542;2022-08-16T12:55:30;4.32;;;0.60;;
46042;SDS011;32533;-33.854;18.542;2022-08-16T12:57:57;4.30;;;0.95;;
46042;SDS011;32533;-33.854;18.542;2022-08-16T13:00:25;4.15;;;0.90;;
46042;SDS011;32533;-33.854;18.542;2022-08-16T13:02:58;1.65;;;1.08;;
46042;SDS011;32533;-33.854;18.542;2022-08-16T13:05:26;3.80;;;1.00;;
46042;SDS011;32533;-33.854;18.542;2022-08-16T13:07:53;3.53;;;1.05;;
46042;SDS011;32533;-33.854;18.542;2022-08-16T13:10:22;1.77;;;0.95;;
46042;SDS011;32533;-33.854;18.542;2022-08-16T13:12:51;3.38;;;0.73;;
46042;SDS011;32533;-33.854;18.542;2022-08-16T13:15:19;1.27;;;0.40;;
46042;SDS011;32533;-33.854;18.542;2022-08-16T13:17:49;4.30;;;1.15;;
46042;SDS011;32533;-33.854;18.542;2022-08-16T13:20:18;7.80;;;1.00;;
46042;SDS011;32533;-33.854;18.542;2022-08-16T13:22:48;5.40;;;1.95;;
46042;SDS011;32533;-33.854;18.542;2022-08-16T13:25:20;3.97;;;1.02;;
46042;SDS011;32533;-33.854;18.542;2022-08-16T13:27:48;4.63;;;0.80;;
46042;SDS011;32533;-33.854;18.542;2022-08-16T13:30:16;19.40;;;1.10;;
46042;SDS011;32533;-33.854;18.542;2022-08-16T13:32:42;7.60;;;0.95;;
46042;SDS011;32533;-33.854;18.542;2022-08-16T13:35:09;2.30;;;0.60;;
46042;SDS011;32533;-33.854;18.542;2022-08-16T13:37:36;3.30;;;0.77;;
46042;SDS011;32533;-33.854;18.542;2022-08-16T13:40:03;4.07;;;1.13;;
46042;SDS011;32533;-33.854;18.542;2022-08-16T13:42:30;5.95;;;0.98;;
46042;SDS011;32533;-33.854;18.542;2022-08-16T13:44:57;6.63;;;1.75;;
46042;SDS011;32533;-33.854;18.542;2022-08-16T13:47:25;3.30;;;0.82;;
46042;SDS011;32533;-33.854;18.542;2022-08-16T13:49:51;2.83;;;1.02;;
46042;SDS011;32533;-33.854;18.542;2022-08-16T13:52:18;2.50;;;0.80;;
46042;SDS011;32533;-33.854;18.542;2022-08-16T13:54:45;3.15;;;0.82;;
46042;SDS011;32533;-33.854;18.542;2022-08-16T13:57:12;1.80;;;0.70;;
46042;SDS011;32533;-33.854;18.542;2022-08-16T13:59:39;2.78;;;0.65;;
46042;SDS011;32533;-33.854;18.542;2022-08-16T14:02:06;9.55;;;1.75;;
46042;SDS011;32533;-33.854;18.542;2022-08-16T14:04:35;4.88;;;1.35;;
46042;SDS011;32533;-33.854;18.542;2022-08-16T14:07:04;4.30;;;1.42;;
46042;SDS011;32533;-33.854;18.542;2022-08-16T14:09:32;1.00;;;0.75;;
46042;SDS011;32533;-33.854;18.542;2022-08-16T14:12:01;4.45;;;0.88;;
46042;SDS011;32533;-33.854;18.542;2022-08-16T14:14:29;3.80;;;0.60;;
46042;SDS011;32533;-33.854;18.542;2022-08-16T14:16:57;6.70;;;0.80;;
46042;SDS011;32533;-33.854;18.542;2022-08-16T14:19:25;3.25;;;1.30;;
46042;SDS011;32533;-33.854;18.542;2022-08-16T14:21:53;6.30;;;1.23;;
46042;SDS011;32533;-33.854;18.542;2022-08-16T14:24:21;4.70;;;1.40;;
46042;SDS011;32533;-33.854;18.542;2022-08-16T14:26:47;6.25;;;1.50;;
46042;SDS011;32533;-33.854;18.542;2022-08-16T14:29:14;8.38;;;4.18;;
46042;SDS011;32533;-33.854;18.542;2022-08-16T14:31:40;12.20;;;4.72;;
46042;SDS011;32533;-33.854;18.542;2022-08-16T14:34:07;7.68;;;2.42;;
46042;SDS011;32533;-33.854;18.542;2022-08-16T14:36:35;10.05;;;2.58;;
46042;SDS011;32533;-33.854;18.542;2022-08-16T14:39:02;7.65;;;2.60;;